createdAt,value
2017-07-18T00:00:39.139Z,1015.12
2017-07-18T00:01:39.777Z,1015.12
2017-07-18T00:02:40.411Z,1015.11
2017-07-18T00:03:41.048Z,1015.12
2017-07-18T00:04:41.886Z,1015.16
2017-07-18T00:05:42.547Z,1015.15
2017-07-18T00:06:43.163Z,1015.11
2017-07-18T00:07:43.800Z,1015.13
2017-07-18T00:08:44.443Z,1015.20
2017-07-18T00:09:45.076Z,1015.22
2017-07-18T00:10:45.714Z,1015.18
2017-07-18T00:11:46.355Z,1015.08
2017-07-18T00:12:47.191Z,1015.11
2017-07-18T00:13:47.831Z,1015.17
2017-07-18T00:14:48.485Z,1015.19
2017-07-18T00:15:49.160Z,1015.18
2017-07-18T00:16:49.799Z,1015.10
2017-07-18T00:17:50.441Z,1015.08
2017-07-18T00:18:51.082Z,1015.10
2017-07-18T00:19:51.768Z,1015.03
2017-07-18T00:20:52.665Z,1015.06
2017-07-18T00:21:53.443Z,1015.00
2017-07-18T00:22:54.230Z,1015.02
2017-07-18T00:23:55.077Z,1015.02
2017-07-18T00:24:55.856Z,1014.98
2017-07-18T00:25:56.641Z,1014.95
2017-07-18T00:26:57.436Z,1014.98
2017-07-18T00:27:58.223Z,1014.96
2017-07-18T00:28:59.017Z,1014.94
2017-07-18T00:29:59.656Z,1014.98
2017-07-18T00:31:00.294Z,1015.05
2017-07-18T00:32:00.932Z,1014.98
2017-07-18T00:33:01.577Z,1015.10
2017-07-18T00:34:02.212Z,1015.02
2017-07-18T00:35:02.846Z,1015.07
2017-07-18T00:36:03.490Z,1015.01
2017-07-18T00:37:04.173Z,1015.00
2017-07-18T00:38:04.815Z,1014.97
2017-07-18T00:39:05.447Z,1014.95
2017-07-18T00:40:06.090Z,1015.05
2017-07-18T00:41:06.730Z,1014.99
2017-07-18T00:42:07.363Z,1014.95
2017-07-18T00:43:07.999Z,1015.01
2017-07-18T00:44:08.638Z,1014.90
2017-07-18T00:45:09.279Z,1014.95
2017-07-18T00:46:10.113Z,1014.95
2017-07-18T00:47:10.751Z,1014.88
2017-07-18T00:48:11.387Z,1014.89
2017-07-18T00:49:12.024Z,1015.00
2017-07-18T00:50:12.662Z,1014.98
2017-07-18T00:51:13.306Z,1015.02
2017-07-18T00:52:13.951Z,1015.01
2017-07-18T00:53:14.570Z,1014.96
2017-07-18T00:54:15.423Z,1014.95
2017-07-18T00:55:16.044Z,1014.98
2017-07-18T00:56:16.684Z,1014.97
2017-07-18T00:57:17.323Z,1014.91
2017-07-18T00:58:17.967Z,1014.91
2017-07-18T00:59:18.599Z,1014.85
2017-07-18T01:07:59.933Z,1014.80
2017-07-18T01:18:30.795Z,1014.69
2017-07-18T02:11:19.002Z,1014.52
2017-07-18T02:12:19.646Z,1014.55
2017-07-18T02:13:20.330Z,1014.48
2017-07-18T02:14:57.867Z,1014.49
2017-07-18T02:15:58.550Z,1014.48
2017-07-18T02:16:59.444Z,1014.48
2017-07-18T02:18:00.084Z,1014.57
2017-07-18T02:19:00.772Z,1014.54
2017-07-18T02:20:01.406Z,1014.58
2017-07-18T02:21:02.048Z,1014.55
2017-07-18T02:22:02.685Z,1014.52
2017-07-18T02:23:03.381Z,1014.49
2017-07-18T02:24:04.019Z,1014.55
2017-07-18T02:25:33.840Z,1014.51
2017-07-18T02:26:34.474Z,1014.48
2017-07-18T02:27:35.118Z,1014.60
2017-07-18T02:28:35.752Z,1014.50
2017-07-18T02:29:36.390Z,1014.50
2017-07-18T02:30:37.026Z,1014.50
2017-07-18T02:31:37.672Z,1014.45
2017-07-18T02:32:38.303Z,1014.51
2017-07-18T02:33:39.151Z,1014.53
2017-07-18T02:34:39.787Z,1014.50
2017-07-18T02:35:40.431Z,1014.40
2017-07-18T02:36:41.062Z,1014.50
2017-07-18T02:37:41.699Z,1014.53
2017-07-18T02:38:42.341Z,1014.49
2017-07-18T02:39:42.980Z,1014.42
2017-07-18T02:40:43.570Z,1014.43
2017-07-18T02:41:44.358Z,1014.40
2017-07-18T02:42:45.001Z,1014.49
2017-07-18T02:43:45.633Z,1014.45
2017-07-18T02:44:46.268Z,1014.46
2017-07-18T02:45:46.910Z,1014.45
2017-07-18T02:46:47.544Z,1014.45
2017-07-18T02:47:48.185Z,1014.43
2017-07-18T02:48:48.818Z,1014.42
2017-07-18T02:49:49.410Z,1014.47
2017-07-18T02:50:50.251Z,1014.40
2017-07-18T02:51:50.891Z,1014.41
2017-07-18T02:52:51.529Z,1014.35
2017-07-18T02:53:52.168Z,1014.29
2017-07-18T02:54:52.802Z,1014.32
2017-07-18T02:55:53.442Z,1014.32
2017-07-18T02:56:54.079Z,1014.30
2017-07-18T02:57:54.712Z,1014.26
2017-07-18T02:58:55.549Z,1014.31
2017-07-18T02:59:56.196Z,1014.33
2017-07-18T03:00:57.083Z,1014.25
2017-07-18T03:01:57.717Z,1014.23
2017-07-18T03:02:58.364Z,1014.21
2017-07-18T03:03:59.004Z,1014.23
2017-07-18T03:04:59.637Z,1014.25
2017-07-18T03:06:00.278Z,1014.28
2017-07-18T03:07:01.112Z,1014.22
2017-07-18T03:08:01.753Z,1014.28
2017-07-18T03:09:02.387Z,1014.29
2017-07-18T03:10:03.030Z,1014.28
2017-07-18T03:11:03.663Z,1014.25
2017-07-18T03:12:04.297Z,1014.23
2017-07-18T03:13:04.936Z,1014.23
2017-07-18T03:14:05.574Z,1014.22
2017-07-18T03:15:06.409Z,1014.28
2017-07-18T03:16:07.058Z,1014.27
2017-07-18T03:17:07.738Z,1014.21
2017-07-18T03:18:08.375Z,1014.18
2017-07-18T03:19:09.016Z,1014.16
2017-07-18T03:20:09.658Z,1014.20
2017-07-18T03:21:10.299Z,1014.16
2017-07-18T03:22:10.929Z,1014.15
2017-07-18T03:23:11.563Z,1014.20
2017-07-18T03:24:12.402Z,1014.18
2017-07-18T03:25:13.050Z,1014.27
2017-07-18T03:26:13.683Z,1014.21
2017-07-18T03:27:14.319Z,1014.20
2017-07-18T03:28:14.966Z,1014.20
2017-07-18T03:29:15.597Z,1014.19
2017-07-18T03:30:16.232Z,1014.22
2017-07-18T03:31:16.868Z,1014.14
2017-07-18T03:32:17.705Z,1014.10
2017-07-18T03:33:18.348Z,1014.16
2017-07-18T03:34:18.989Z,1014.17
2017-07-18T03:35:19.672Z,1014.19
2017-07-18T03:36:20.308Z,1014.22
2017-07-18T03:37:20.943Z,1014.19
2017-07-18T03:38:21.585Z,1014.12
2017-07-18T03:39:22.225Z,1014.20
2017-07-18T03:40:23.011Z,1014.17
2017-07-18T03:41:23.644Z,1014.16
2017-07-18T03:42:24.280Z,1014.17
2017-07-18T03:43:24.928Z,1014.16
2017-07-18T03:44:25.566Z,1014.20
2017-07-18T03:45:26.259Z,1014.17
2017-07-18T03:46:26.900Z,1014.20
2017-07-18T03:47:27.536Z,1014.12
2017-07-18T03:48:28.470Z,1014.14
2017-07-18T03:49:29.105Z,1014.16
2017-07-18T03:50:29.753Z,1014.11
2017-07-18T03:51:30.381Z,1014.10
2017-07-18T03:52:31.019Z,1014.12
2017-07-18T03:53:31.661Z,1014.05
2017-07-18T03:54:32.293Z,1014.10
2017-07-18T03:55:32.935Z,1014.10
2017-07-18T03:56:33.869Z,1014.13
2017-07-18T03:57:34.513Z,1014.15
2017-07-18T03:58:35.146Z,1014.19
2017-07-18T03:59:35.781Z,1014.17
2017-07-18T04:00:36.419Z,1014.15
2017-07-18T04:01:37.053Z,1014.17
2017-07-18T04:02:37.689Z,1014.17
2017-07-18T04:03:38.331Z,1014.12
2017-07-18T04:04:38.970Z,1014.19
2017-07-18T04:05:39.809Z,1014.13
2017-07-18T04:06:40.447Z,1014.15
2017-07-18T04:07:41.084Z,1014.09
2017-07-18T04:08:41.723Z,1014.05
2017-07-18T04:09:42.359Z,1014.12
2017-07-18T04:10:42.994Z,1014.13
2017-07-18T04:11:43.631Z,1014.12
2017-07-18T04:12:44.267Z,1014.16
2017-07-18T04:13:45.054Z,1014.09
2017-07-18T04:14:45.696Z,1014.04
2017-07-18T04:15:46.386Z,1014.10
2017-07-18T04:16:47.017Z,1014.13
2017-07-18T04:17:47.657Z,1014.16
2017-07-18T04:18:48.294Z,1014.07
2017-07-18T04:19:48.936Z,1014.15
2017-07-18T04:20:49.570Z,1014.12
2017-07-18T04:21:50.406Z,1014.13
2017-07-18T04:22:51.045Z,1014.23
2017-07-18T04:23:51.687Z,1014.28
2017-07-18T04:24:52.323Z,1014.20
2017-07-18T04:25:52.962Z,1014.29
2017-07-18T04:26:53.602Z,1014.26
2017-07-18T04:27:54.290Z,1014.25
2017-07-18T04:28:54.925Z,1014.24
2017-07-18T04:29:55.764Z,1014.23
2017-07-18T04:30:56.414Z,1014.22
2017-07-18T04:31:57.039Z,1014.25
2017-07-18T04:32:57.680Z,1014.32
2017-07-18T04:33:58.319Z,1014.30
2017-07-18T04:34:58.954Z,1014.27
2017-07-18T04:35:59.592Z,1014.30
2017-07-18T04:37:00.228Z,1014.21
2017-07-18T04:38:00.864Z,1014.27
2017-07-18T04:39:01.701Z,1014.24
2017-07-18T04:40:02.346Z,1014.23
2017-07-18T04:41:03.026Z,1014.23
2017-07-18T04:42:03.672Z,1014.31
2017-07-18T04:43:04.304Z,1014.30
2017-07-18T04:44:04.945Z,1014.35
2017-07-18T04:45:05.583Z,1014.32
2017-07-18T04:46:06.221Z,1014.33
2017-07-18T04:47:07.007Z,1014.31
2017-07-18T04:48:07.643Z,1014.32
2017-07-18T04:49:08.285Z,1014.31
2017-07-18T04:50:08.923Z,1014.27
2017-07-18T04:51:09.566Z,1014.29
2017-07-18T04:52:10.198Z,1014.30
2017-07-18T04:53:10.844Z,1014.32
2017-07-18T04:54:11.483Z,1014.29
2017-07-18T04:55:12.315Z,1014.26
2017-07-18T04:56:12.954Z,1014.27
2017-07-18T04:57:13.587Z,1014.25
2017-07-18T04:58:14.231Z,1014.25
2017-07-18T04:59:14.862Z,1014.22
2017-07-18T05:00:15.507Z,1014.36
2017-07-18T05:01:16.138Z,1014.25
2017-07-18T05:02:16.782Z,1014.34
2017-07-18T05:03:17.613Z,1014.31
2017-07-18T05:04:18.250Z,1014.25
2017-07-18T05:05:18.885Z,1014.27
2017-07-18T05:06:19.526Z,1014.18
2017-07-18T05:07:20.159Z,1014.25
2017-07-18T05:08:20.801Z,1014.22
2017-07-18T05:09:21.466Z,1014.21
2017-07-18T05:10:22.081Z,1014.21
2017-07-18T05:11:22.924Z,1014.22
2017-07-18T05:12:23.559Z,1014.21
2017-07-18T05:13:24.199Z,1014.19
2017-07-18T05:14:24.834Z,1014.15
2017-07-18T05:15:25.470Z,1014.13
2017-07-18T05:16:26.105Z,1014.17
2017-07-18T05:17:26.749Z,1014.13
2017-07-18T05:18:27.381Z,1014.10
2017-07-18T05:19:28.023Z,1014.15
2017-07-18T05:20:28.858Z,1014.11
2017-07-18T05:21:29.498Z,1014.17
2017-07-18T05:22:30.137Z,1014.14
2017-07-18T05:23:30.827Z,1014.15
2017-07-18T05:24:31.467Z,1014.12
2017-07-18T05:25:32.093Z,1014.15
2017-07-18T05:26:32.736Z,1014.20
2017-07-18T05:27:33.376Z,1014.15
2017-07-18T05:28:34.157Z,1014.16
2017-07-18T05:29:34.794Z,1014.08
2017-07-18T05:30:35.432Z,1014.09
2017-07-18T05:31:36.070Z,1014.15
2017-07-18T05:32:36.706Z,1014.10
2017-07-18T05:33:37.348Z,1014.15
2017-07-18T05:34:37.993Z,1014.14
2017-07-18T05:35:38.631Z,1014.16
2017-07-18T05:36:39.524Z,1014.20
2017-07-18T05:37:40.162Z,1014.14
2017-07-18T05:38:40.849Z,1014.14
2017-07-18T05:39:41.484Z,1014.14
2017-07-18T05:40:42.129Z,1014.11
2017-07-18T05:41:42.757Z,1014.12
2017-07-18T05:42:43.403Z,1014.16
2017-07-18T05:43:44.092Z,1014.09
2017-07-18T05:44:44.878Z,1014.17
2017-07-18T05:45:45.516Z,1014.12
2017-07-18T05:46:46.158Z,1014.16
2017-07-18T05:47:46.793Z,1014.10
2017-07-18T05:48:47.435Z,1014.15
2017-07-18T05:49:48.073Z,1014.16
2017-07-18T05:50:48.713Z,1014.16
2017-07-18T05:51:49.351Z,1014.15
2017-07-18T05:52:49.990Z,1014.13
2017-07-18T05:53:50.829Z,1014.15
2017-07-18T05:54:51.469Z,1014.10
2017-07-18T05:55:52.106Z,1014.14
2017-07-18T05:56:52.739Z,1014.07
2017-07-18T05:57:53.383Z,1014.14
2017-07-18T05:58:54.025Z,1014.23
2017-07-18T05:59:54.712Z,1014.21
2017-07-18T06:00:55.344Z,1014.23
2017-07-18T06:01:56.330Z,1014.21
2017-07-18T06:02:56.968Z,1014.21
2017-07-18T06:03:57.607Z,1014.20
2017-07-18T06:04:58.244Z,1014.31
2017-07-18T06:05:58.884Z,1014.24
2017-07-18T06:06:59.521Z,1014.30
2017-07-18T06:08:00.156Z,1014.23
2017-07-18T06:09:00.792Z,1014.26
2017-07-18T06:10:01.577Z,1014.31
2017-07-18T06:11:02.221Z,1014.27
2017-07-18T06:12:02.870Z,1014.30
2017-07-18T06:13:03.500Z,1014.34
2017-07-18T06:14:04.130Z,1014.32
2017-07-18T06:15:04.768Z,1014.29
2017-07-18T06:16:05.411Z,1014.32
2017-07-18T06:17:06.051Z,1014.37
2017-07-18T06:18:06.887Z,1014.35
2017-07-18T06:19:07.524Z,1014.37
2017-07-18T06:20:08.162Z,1014.41
2017-07-18T06:21:08.796Z,1014.48
2017-07-18T06:22:09.433Z,1014.37
2017-07-18T06:23:10.072Z,1014.46
2017-07-18T06:24:10.715Z,1014.48
2017-07-18T06:25:11.353Z,1014.53
2017-07-18T06:26:12.138Z,1014.42
2017-07-18T06:27:12.778Z,1014.47
2017-07-18T06:28:13.418Z,1014.47
2017-07-18T06:29:14.050Z,1014.44
2017-07-18T06:30:14.689Z,1014.46
2017-07-18T06:31:15.337Z,1014.56
2017-07-18T06:32:15.962Z,1014.50
2017-07-18T09:46:52.280Z,1015.26
2017-07-18T14:36:45.565Z,1015.71
2017-07-18T14:37:46.205Z,1015.68
2017-07-18T14:38:46.847Z,1015.71
2017-07-18T14:39:47.633Z,1015.68
2017-07-18T14:40:48.273Z,1015.72
2017-07-18T14:41:48.909Z,1015.74
2017-07-18T14:42:49.554Z,1015.71
2017-07-18T14:43:50.186Z,1015.75
2017-07-18T14:44:50.885Z,1015.64
2017-07-18T14:45:51.522Z,1015.75
2017-07-18T14:46:52.191Z,1015.72
2017-07-18T14:47:53.108Z,1015.74
2017-07-18T14:48:53.746Z,1015.74
2017-07-18T14:49:54.410Z,1015.62
2017-07-18T14:50:55.082Z,1015.74
2017-07-18T14:51:55.722Z,1015.70
2017-07-18T14:52:56.364Z,1015.72
2017-07-18T14:53:57.007Z,1015.63
2017-07-18T14:54:57.641Z,1015.64
2017-07-18T14:55:58.276Z,1015.67
2017-07-18T14:56:59.169Z,1015.74
2017-07-18T14:57:59.804Z,1015.76
2017-07-18T14:59:00.447Z,1015.81
2017-07-18T15:00:01.081Z,1015.79
2017-07-18T15:01:01.773Z,1015.79
2017-07-18T15:02:03.393Z,1015.72
2017-07-18T15:03:04.056Z,1015.74
2017-07-18T15:04:04.693Z,1015.72
2017-07-18T15:05:05.537Z,1015.73
2017-07-18T15:06:06.173Z,1015.76
2017-07-18T15:07:06.813Z,1015.78
2017-07-18T15:08:07.450Z,1015.77
2017-07-18T15:09:08.084Z,1015.74
2017-07-18T15:10:08.743Z,1015.81
2017-07-18T15:11:09.421Z,1015.84
2017-07-18T15:12:10.061Z,1015.78
2017-07-18T15:13:10.948Z,1015.74
2017-07-18T15:14:12.538Z,1015.81
2017-07-18T15:15:13.182Z,1015.78
2017-07-18T15:16:13.813Z,1015.78
2017-07-18T15:17:14.459Z,1015.83
2017-07-18T15:18:15.093Z,1015.81
2017-07-18T15:19:15.779Z,1015.83
2017-07-18T15:20:17.409Z,1015.83
2017-07-18T15:21:19.198Z,1015.83
2017-07-18T15:22:19.831Z,1015.76
2017-07-18T15:23:20.468Z,1015.80
2017-07-18T15:24:21.108Z,1015.81
2017-07-18T15:25:21.747Z,1015.83
2017-07-18T15:26:22.383Z,1015.88
2017-07-18T15:27:23.023Z,1015.69
2017-07-18T15:28:23.661Z,1015.76
2017-07-18T15:29:24.618Z,1015.78
2017-07-18T15:30:25.242Z,1015.73
2017-07-18T15:31:25.885Z,1015.79
2017-07-18T15:32:26.556Z,1015.79
2017-07-18T15:33:27.205Z,1015.74
2017-07-18T15:34:27.841Z,1015.77
2017-07-18T15:35:28.681Z,1015.76
2017-07-18T15:36:29.385Z,1015.76
2017-07-18T15:37:30.957Z,1015.81
2017-07-18T15:38:31.793Z,1015.73
2017-07-18T15:39:32.443Z,1015.71
2017-07-18T15:40:33.077Z,1015.76
2017-07-18T15:41:33.712Z,1015.81
2017-07-18T15:42:34.348Z,1015.83
2017-07-18T15:43:34.986Z,1015.84
2017-07-18T15:44:35.679Z,1015.75
2017-07-18T15:45:37.258Z,1015.78
2017-07-18T15:46:38.236Z,1015.71
2017-07-18T15:47:39.868Z,1015.76
2017-07-18T15:48:41.503Z,1015.73
2017-07-18T15:49:43.128Z,1015.67
2017-07-18T15:50:43.785Z,1015.64
2017-07-18T15:51:44.425Z,1015.83
2017-07-18T15:52:45.058Z,1015.68
2017-07-18T15:53:45.746Z,1015.68
2017-07-18T15:54:47.557Z,1015.69
2017-07-18T15:55:48.235Z,1015.71
2017-07-18T15:56:48.876Z,1015.68
2017-07-18T15:57:49.515Z,1015.71
2017-07-18T15:58:50.155Z,1015.62
2017-07-18T15:59:50.792Z,1015.64
2017-07-18T16:00:51.427Z,1015.71
2017-07-18T16:01:52.074Z,1015.68
2017-07-18T16:02:53.106Z,1015.65
2017-07-18T16:03:53.745Z,1015.68
2017-07-18T16:04:54.401Z,1015.68
2017-07-18T16:05:55.074Z,1015.73
2017-07-18T16:06:55.758Z,1015.74
2017-07-18T16:07:56.420Z,1015.76
2017-07-18T16:08:57.132Z,1015.74
2017-07-18T16:09:58.728Z,1015.75
2017-07-18T16:10:59.591Z,1015.69
2017-07-18T16:12:00.267Z,1015.70
2017-07-18T16:13:00.944Z,1015.78
2017-07-18T16:14:01.626Z,1015.69
2017-07-18T16:15:03.225Z,1015.72
2017-07-18T16:16:03.860Z,1015.69
2017-07-18T16:17:04.502Z,1015.73
2017-07-18T16:18:05.176Z,1015.74
2017-07-18T16:19:06.769Z,1015.75
2017-07-18T16:20:07.609Z,1015.79
2017-07-18T16:21:08.247Z,1015.73
2017-07-18T16:22:08.886Z,1015.75
2017-07-18T16:23:09.520Z,1015.71
2017-07-18T16:24:10.133Z,1015.70
2017-07-18T16:25:10.799Z,1015.88
2017-07-18T16:26:11.461Z,1015.77
2017-07-18T16:27:12.130Z,1015.78
2017-07-18T16:28:12.965Z,1015.79
2017-07-18T16:29:13.621Z,1015.81
2017-07-18T16:30:14.294Z,1015.78
2017-07-18T16:31:14.938Z,1015.81
2017-07-18T16:32:15.586Z,1015.87
2017-07-18T16:33:16.280Z,1015.87
2017-07-18T16:34:16.954Z,1015.81
2017-07-18T16:35:17.599Z,1015.75
2017-07-18T16:36:18.463Z,1015.86
2017-07-18T20:01:59.390Z,1016.09
2017-07-18T20:03:00.026Z,1016.07
2017-07-18T20:04:01.017Z,1016.12
2017-07-18T20:05:01.652Z,1016.12
2017-07-18T20:06:02.341Z,1016.12
2017-07-18T20:07:02.978Z,1016.12
2017-07-18T20:08:03.619Z,1016.11
2017-07-18T20:09:04.252Z,1016.06
2017-07-18T20:10:17.757Z,1016.08
2017-07-18T20:11:18.391Z,1016.07
2017-07-18T20:12:19.191Z,1016.09
2017-07-18T20:13:19.820Z,1016.03
2017-07-18T20:14:20.456Z,1016.07
2017-07-18T20:15:21.092Z,1016.03
2017-07-18T20:16:21.733Z,1016.09
2017-07-18T20:17:22.368Z,1016.02
2017-07-18T20:18:23.015Z,1016.06
2017-07-18T20:19:23.598Z,1016.07
2017-07-18T20:20:24.596Z,1016.03
2017-07-18T20:21:25.226Z,1016.07
2017-07-18T20:22:25.864Z,1016.10
2017-07-18T20:23:26.504Z,1016.11
2017-07-18T20:24:27.143Z,1016.07
2017-07-18T20:25:27.780Z,1016.14
2017-07-18T20:27:54.725Z,1016.08
2017-07-18T20:28:55.561Z,1016.06
2017-07-18T20:29:56.204Z,1016.19
2017-07-18T20:30:56.839Z,1016.20
2017-07-18T20:31:57.478Z,1016.12
2017-07-18T20:32:58.112Z,1016.14
2017-07-18T20:33:58.754Z,1016.20
2017-07-18T20:34:59.387Z,1016.17
2017-07-18T20:36:00.037Z,1016.20
2017-07-18T20:37:00.820Z,1016.20
2017-07-18T20:38:01.468Z,1016.17
2017-07-18T20:39:02.099Z,1016.13
2017-07-18T20:40:02.735Z,1016.17
2017-07-18T20:41:03.374Z,1016.24
2017-07-18T20:42:04.015Z,1016.18
2017-07-18T20:43:04.655Z,1016.22
2017-07-18T20:44:05.349Z,1016.17
2017-07-18T20:45:05.987Z,1016.20
2017-07-18T20:46:06.821Z,1016.17
2017-07-18T20:47:07.457Z,1016.22
2017-07-18T20:48:08.097Z,1016.21
2017-07-18T20:49:08.730Z,1016.20
2017-07-18T20:50:09.373Z,1016.28
2017-07-18T20:51:10.006Z,1016.32
2017-07-18T20:52:10.647Z,1016.25
2017-07-18T20:53:11.286Z,1016.29
2017-07-18T20:54:12.127Z,1016.37
2017-07-18T20:55:12.761Z,1016.39
2017-07-18T20:56:13.402Z,1016.41
2017-07-18T20:57:13.988Z,1016.37
2017-07-18T20:58:14.575Z,1016.41
2017-07-18T20:59:15.211Z,1016.38
2017-07-18T21:00:15.850Z,1016.41
2017-07-18T21:01:16.483Z,1016.44
2017-07-18T21:02:17.334Z,1016.49
2017-07-18T21:03:17.972Z,1016.50
2017-07-18T21:04:18.605Z,1016.54
2017-07-18T21:05:19.252Z,1016.56
2017-07-18T21:06:19.892Z,1016.56
2017-07-18T21:07:20.525Z,1016.63
2017-07-18T21:08:21.177Z,1016.60
2017-07-18T21:09:21.798Z,1016.63
2017-07-18T21:10:22.635Z,1016.63
2017-07-18T21:11:23.271Z,1016.67
2017-07-18T21:12:23.920Z,1016.64
2017-07-18T21:13:24.544Z,1016.75
2017-07-18T21:14:25.179Z,1016.70
2017-07-18T21:15:25.817Z,1016.66
2017-07-18T21:16:26.405Z,1016.77
2017-07-18T21:17:27.038Z,1016.73
2017-07-18T21:18:27.676Z,1016.63
2017-07-18T21:19:28.412Z,1016.75
2017-07-18T21:20:29.052Z,1016.73
2017-07-18T21:21:29.693Z,1016.83
2017-07-18T21:22:30.331Z,1016.78
2017-07-18T21:23:30.968Z,1016.74
2017-07-18T21:24:31.601Z,1016.81
2017-07-18T21:25:32.239Z,1016.73
2017-07-18T21:26:32.926Z,1016.75
2017-07-18T21:27:34.595Z,1016.76
2017-07-18T21:28:35.210Z,1016.83
2017-07-18T21:29:35.844Z,1016.81
2017-07-18T21:30:36.491Z,1016.76
2017-07-18T21:31:37.122Z,1016.85
2017-07-18T21:32:37.760Z,1016.82
2017-07-18T21:33:38.395Z,1016.80
2017-07-18T21:34:39.028Z,1016.80
2017-07-18T21:35:39.873Z,1016.79
2017-07-18T21:36:40.506Z,1016.71
2017-07-18T21:37:41.143Z,1016.86
2017-07-18T21:38:41.780Z,1016.85
2017-07-18T21:39:42.423Z,1016.82
2017-07-18T21:40:43.058Z,1016.83
2017-07-18T21:41:43.695Z,1016.88
2017-07-18T21:42:44.335Z,1016.90
2017-07-18T21:43:45.420Z,1016.93
2017-07-18T21:44:46.054Z,1016.90
2017-07-18T21:45:46.701Z,1016.87
2017-07-18T21:46:47.342Z,1016.88
2017-07-18T21:47:47.976Z,1016.90
2017-07-18T21:48:48.615Z,1016.85
2017-07-18T21:49:49.253Z,1016.86
2017-07-18T21:50:49.890Z,1016.88
2017-07-18T21:51:50.721Z,1016.86
2017-07-18T21:52:51.367Z,1016.83
2017-07-18T21:53:51.998Z,1016.82
2017-07-18T21:54:52.635Z,1016.81
2017-07-18T21:55:53.277Z,1016.82
2017-07-18T21:56:53.907Z,1016.89
2017-07-18T21:57:54.550Z,1016.83
2017-07-18T21:58:55.184Z,1016.84
2017-07-18T21:59:55.826Z,1016.89
2017-07-18T22:00:56.658Z,1016.87
2017-07-18T22:01:57.295Z,1016.88
2017-07-18T22:02:57.933Z,1016.87
2017-07-18T22:03:58.568Z,1016.85
2017-07-18T22:04:59.205Z,1016.87
2017-07-18T22:05:59.846Z,1016.85
2017-07-18T22:07:00.482Z,1016.80
2017-07-18T22:08:01.123Z,1016.89
2017-07-18T22:09:01.961Z,1016.80
2017-07-18T22:10:02.600Z,1016.83
2017-07-18T22:11:03.239Z,1016.82
2017-07-18T22:12:03.878Z,1016.87
2017-07-18T22:13:04.562Z,1016.81
2017-07-18T22:14:05.197Z,1016.76
2017-07-18T22:15:05.833Z,1016.80
2017-07-18T22:16:06.471Z,1016.69
2017-07-18T22:17:07.430Z,1016.80
2017-07-18T22:18:08.050Z,1016.83
2017-07-18T22:19:08.686Z,1016.73
2017-07-18T22:20:09.376Z,1016.79
2017-07-18T22:21:10.014Z,1016.77
2017-07-18T22:22:10.656Z,1016.77
2017-07-18T22:23:11.243Z,1016.77
2017-07-18T22:24:11.877Z,1016.66
2017-07-18T22:25:12.716Z,1016.78
2017-07-18T22:26:13.358Z,1016.83
2017-07-18T22:27:14.003Z,1016.76
2017-07-18T22:28:14.684Z,1016.75
2017-07-18T22:29:15.320Z,1016.77
2017-07-18T22:30:15.961Z,1016.73
2017-07-18T22:31:16.594Z,1016.77
2017-07-18T22:32:17.236Z,1016.82
2017-07-18T22:33:17.876Z,1016.84
2017-07-18T22:34:18.709Z,1016.76
2017-07-18T22:35:19.352Z,1016.76
2017-07-18T22:36:19.994Z,1016.83
2017-07-18T22:37:20.628Z,1016.75
2017-07-18T22:38:21.272Z,1016.76
2017-07-18T22:39:21.900Z,1016.77
2017-07-18T22:40:22.539Z,1016.72
2017-07-18T22:41:23.223Z,1016.76
2017-07-18T22:42:24.009Z,1016.76
2017-07-18T22:43:24.645Z,1016.72
2017-07-18T22:44:25.292Z,1016.74
2017-07-18T22:45:25.923Z,1016.70
2017-07-18T22:46:26.564Z,1016.71
2017-07-18T22:47:27.200Z,1016.64
2017-07-18T22:48:27.841Z,1016.70
2017-07-18T22:49:28.476Z,1016.72
2017-07-18T22:50:29.514Z,1016.77
2017-07-18T22:51:30.156Z,1016.75
2017-07-18T22:52:30.795Z,1016.75
2017-07-18T22:53:31.435Z,1016.75
2017-07-18T22:54:32.070Z,1016.72
2017-07-18T22:55:32.717Z,1016.69
2017-07-18T22:56:33.355Z,1016.73
2017-07-18T22:57:33.987Z,1016.75
2017-07-18T22:58:34.774Z,1016.76
2017-07-18T22:59:35.407Z,1016.79
2017-07-18T23:00:36.050Z,1016.82
2017-07-18T23:01:36.684Z,1016.79
2017-07-18T23:02:37.332Z,1016.88
2017-07-18T23:03:37.961Z,1016.79
2017-07-18T23:04:38.603Z,1016.76
2017-07-18T23:05:39.236Z,1016.87
2017-07-18T23:06:40.146Z,1016.79
2017-07-18T23:07:40.800Z,1016.72
2017-07-18T23:08:41.452Z,1016.78
2017-07-18T23:09:42.105Z,1016.72
2017-07-18T23:10:42.761Z,1016.70
2017-07-18T23:11:43.609Z,1016.72
2017-07-18T23:12:44.245Z,1016.71
2017-07-18T23:13:44.887Z,1016.76
2017-07-18T23:14:45.537Z,1016.69
2017-07-18T23:15:46.362Z,1016.74
2017-07-18T23:16:46.997Z,1016.73
2017-07-18T23:17:47.635Z,1016.66
2017-07-18T23:18:48.268Z,1016.67
2017-07-18T23:19:48.912Z,1016.78
2017-07-18T23:20:49.545Z,1016.69
2017-07-18T23:21:50.187Z,1016.70
2017-07-18T23:22:50.876Z,1016.65
2017-07-18T23:23:51.667Z,1016.66
2017-07-18T23:24:52.299Z,1016.68
2017-07-18T23:25:52.935Z,1016.74
2017-07-18T23:26:53.574Z,1016.68
2017-07-18T23:27:54.217Z,1016.54
2017-07-18T23:28:54.855Z,1016.63
2017-07-18T23:29:55.539Z,1016.64
2017-07-18T23:30:56.177Z,1016.62
2017-07-18T23:31:57.115Z,1016.62
2017-07-18T23:32:57.751Z,1016.60
2017-07-18T23:33:58.391Z,1016.63
2017-07-18T23:34:59.026Z,1016.57
2017-07-18T23:35:59.668Z,1016.55
2017-07-18T23:37:00.312Z,1016.53
2017-07-18T23:38:00.949Z,1016.56
2017-07-18T23:39:01.593Z,1016.53
2017-07-18T23:40:02.482Z,1016.47
2017-07-18T23:41:03.113Z,1016.52
2017-07-18T23:42:03.749Z,1016.50
2017-07-18T23:43:04.434Z,1016.53
2017-07-18T23:44:05.072Z,1016.52
2017-07-18T23:45:05.715Z,1016.43
2017-07-18T23:46:06.348Z,1016.43
2017-07-18T23:47:06.992Z,1016.45
2017-07-18T23:48:07.684Z,1016.60
2017-07-18T23:49:08.575Z,1016.40
2017-07-18T23:50:09.211Z,1016.44
2017-07-18T23:51:09.851Z,1016.41
2017-07-18T23:52:10.490Z,1016.46
2017-07-18T23:53:11.129Z,1016.46
2017-07-18T23:54:11.770Z,1016.48
2017-07-18T23:55:12.408Z,1016.50
2017-07-18T23:56:13.049Z,1016.50
2017-07-18T23:57:13.886Z,1016.47
2017-07-18T23:58:14.524Z,1016.40
2017-07-18T23:59:15.162Z,1016.48
